sensor_id;sensor_type;location;lat;lon;timestamp;temperature;humidity
75436;DHT22;64014;53.432;14.534;2022-12-24T00:00:24;4.50;81.00
75436;DHT22;64014;53.432;14.534;2022-12-24T00:02:50;4.50;80.90
75436;DHT22;64014;53.432;14.534;2022-12-24T00:05:16;4.50;80.80
75436;DHT22;64014;53.432;14.534;2022-12-24T00:07:42;4.50;80.70
75436;DHT22;64014;53.432;14.534;2022-12-24T00:10:08;4.50;80.40
75436;DHT22;64014;53.432;14.534;2022-12-24T00:12:35;4.50;80.30
75436;DHT22;64014;53.432;14.534;2022-12-24T00:15:02;4.40;80.30
75436;DHT22;64014;53.432;14.534;2022-12-24T00:17:28;4.40;80.30
75436;DHT22;64014;53.432;14.534;2022-12-24T00:19:54;4.40;80.20
75436;DHT22;64014;53.432;14.534;2022-12-24T00:22:20;4.30;80.20
75436;DHT22;64014;53.432;14.534;2022-12-24T00:24:45;4.30;80.40
75436;DHT22;64014;53.432;14.534;2022-12-24T00:27:11;4.30;80.50
75436;DHT22;64014;53.432;14.534;2022-12-24T00:29:37;4.30;80.50
75436;DHT22;64014;53.432;14.534;2022-12-24T00:32:03;4.20;80.40
75436;DHT22;64014;53.432;14.534;2022-12-24T00:34:32;4.20;80.50
75436;DHT22;64014;53.432;14.534;2022-12-24T00:36:58;4.20;80.30
75436;DHT22;64014;53.432;14.534;2022-12-24T00:39:24;4.20;80.50
75436;DHT22;64014;53.432;14.534;2022-12-24T00:41:50;4.20;80.40
75436;DHT22;64014;53.432;14.534;2022-12-24T00:44:16;4.20;80.20
75436;DHT22;64014;53.432;14.534;2022-12-24T00:46:41;4.20;80.10
75436;DHT22;64014;53.432;14.534;2022-12-24T00:49:08;4.20;80.10
75436;DHT22;64014;53.432;14.534;2022-12-24T00:51:36;4.20;79.90
75436;DHT22;64014;53.432;14.534;2022-12-24T00:54:02;4.20;79.70
75436;DHT22;64014;53.432;14.534;2022-12-24T00:56:28;4.20;79.40
75436;DHT22;64014;53.432;14.534;2022-12-24T00:58:54;4.20;79.40
75436;DHT22;64014;53.432;14.534;2022-12-24T01:01:21;4.20;79.40
75436;DHT22;64014;53.432;14.534;2022-12-24T01:03:47;4.10;79.20
75436;DHT22;64014;53.432;14.534;2022-12-24T01:06:19;4.10;79.00
75436;DHT22;64014;53.432;14.534;2022-12-24T01:08:45;4.10;79.00
75436;DHT22;64014;53.432;14.534;2022-12-24T01:11:11;4.10;79.00
75436;DHT22;64014;53.432;14.534;2022-12-24T01:13:38;4.10;78.90
75436;DHT22;64014;53.432;14.534;2022-12-24T01:16:16;4.10;78.90
75436;DHT22;64014;53.432;14.534;2022-12-24T01:18:42;4.10;78.70
75436;DHT22;64014;53.432;14.534;2022-12-24T01:21:08;4.10;78.60
75436;DHT22;64014;53.432;14.534;2022-12-24T01:23:34;4.00;78.50
75436;DHT22;64014;53.432;14.534;2022-12-24T01:26:01;4.00;78.60
75436;DHT22;64014;53.432;14.534;2022-12-24T01:28:27;4.00;78.70
75436;DHT22;64014;53.432;14.534;2022-12-24T01:30:53;4.00;78.70
75436;DHT22;64014;53.432;14.534;2022-12-24T01:33:19;4.00;78.70
75436;DHT22;64014;53.432;14.534;2022-12-24T01:35:45;4.00;78.50
75436;DHT22;64014;53.432;14.534;2022-12-24T01:38:11;3.90;78.30
75436;DHT22;64014;53.432;14.534;2022-12-24T01:40:39;3.90;78.40
75436;DHT22;64014;53.432;14.534;2022-12-24T01:43:26;3.90;78.50
75436;DHT22;64014;53.432;14.534;2022-12-24T01:45:58;3.90;78.60
75436;DHT22;64014;53.432;14.534;2022-12-24T01:53:48;3.90;78.20
75436;DHT22;64014;53.432;14.534;2022-12-24T01:56:15;3.90;78.00
75436;DHT22;64014;53.432;14.534;2022-12-24T01:58:44;3.90;77.90
75436;DHT22;64014;53.432;14.534;2022-12-24T02:01:10;3.90;77.60
75436;DHT22;64014;53.432;14.534;2022-12-24T02:03:36;3.90;77.50
75436;DHT22;64014;53.432;14.534;2022-12-24T02:06:02;3.90;77.30
75436;DHT22;64014;53.432;14.534;2022-12-24T02:08:28;3.90;77.30
75436;DHT22;64014;53.432;14.534;2022-12-24T02:11:24;3.90;77.30
75436;DHT22;64014;53.432;14.534;2022-12-24T02:13:56;3.90;77.20
75436;DHT22;64014;53.432;14.534;2022-12-24T02:22:39;3.90;76.80
75436;DHT22;64014;53.432;14.534;2022-12-24T02:28:10;3.90;76.60
75436;DHT22;64014;53.432;14.534;2022-12-24T02:30:47;3.80;76.50
75436;DHT22;64014;53.432;14.534;2022-12-24T02:33:24;3.80;76.60
75436;DHT22;64014;53.432;14.534;2022-12-24T02:36:04;3.80;76.60
75436;DHT22;64014;53.432;14.534;2022-12-24T02:38:49;3.80;76.50
75436;DHT22;64014;53.432;14.534;2022-12-24T02:41:30;3.80;76.50
75436;DHT22;64014;53.432;14.534;2022-12-24T02:44:18;3.80;76.50
75436;DHT22;64014;53.432;14.534;2022-12-24T02:46:45;3.70;76.60
75436;DHT22;64014;53.432;14.534;2022-12-24T02:49:13;3.70;76.60
75436;DHT22;64014;53.432;14.534;2022-12-24T02:51:38;3.70;76.60
75436;DHT22;64014;53.432;14.534;2022-12-24T02:54:05;3.80;76.40
75436;DHT22;64014;53.432;14.534;2022-12-24T03:02:24;3.70;76.40
75436;DHT22;64014;53.432;14.534;2022-12-24T03:05:07;3.70;76.50
75436;DHT22;64014;53.432;14.534;2022-12-24T03:07:54;3.70;76.70
75436;DHT22;64014;53.432;14.534;2022-12-24T03:10:57;3.70;76.60
75436;DHT22;64014;53.432;14.534;2022-12-24T03:13:26;3.70;76.70
75436;DHT22;64014;53.432;14.534;2022-12-24T03:15:53;3.70;76.70
75436;DHT22;64014;53.432;14.534;2022-12-24T03:18:22;3.70;76.80
75436;DHT22;64014;53.432;14.534;2022-12-24T03:23:31;3.70;76.70
75436;DHT22;64014;53.432;14.534;2022-12-24T03:25:59;3.70;76.60
75436;DHT22;64014;53.432;14.534;2022-12-24T03:28:27;3.70;76.60
75436;DHT22;64014;53.432;14.534;2022-12-24T03:30:53;3.60;76.50
75436;DHT22;64014;53.432;14.534;2022-12-24T03:33:20;3.60;76.40
75436;DHT22;64014;53.432;14.534;2022-12-24T03:35:46;3.60;76.60
75436;DHT22;64014;53.432;14.534;2022-12-24T03:38:12;3.60;76.70
75436;DHT22;64014;53.432;14.534;2022-12-24T03:40:38;3.70;76.60
75436;DHT22;64014;53.432;14.534;2022-12-24T03:43:03;3.70;76.40
75436;DHT22;64014;53.432;14.534;2022-12-24T03:45:29;3.70;76.10
75436;DHT22;64014;53.432;14.534;2022-12-24T03:47:55;3.70;76.00
75436;DHT22;64014;53.432;14.534;2022-12-24T03:50:21;3.70;76.10
75436;DHT22;64014;53.432;14.534;2022-12-24T03:52:47;3.70;76.10
75436;DHT22;64014;53.432;14.534;2022-12-24T03:55:13;3.70;76.10
75436;DHT22;64014;53.432;14.534;2022-12-24T03:57:39;3.70;76.00
75436;DHT22;64014;53.432;14.534;2022-12-24T04:00:05;3.60;75.90
75436;DHT22;64014;53.432;14.534;2022-12-24T04:02:31;3.60;76.00
75436;DHT22;64014;53.432;14.534;2022-12-24T04:04:57;3.60;76.00
75436;DHT22;64014;53.432;14.534;2022-12-24T04:07:23;3.50;76.00
75436;DHT22;64014;53.432;14.534;2022-12-24T04:09:49;3.50;75.90
75436;DHT22;64014;53.432;14.534;2022-12-24T04:12:14;3.50;75.80
75436;DHT22;64014;53.432;14.534;2022-12-24T04:14:40;3.50;75.50
75436;DHT22;64014;53.432;14.534;2022-12-24T04:17:06;3.50;75.40
75436;DHT22;64014;53.432;14.534;2022-12-24T04:19:31;3.50;75.40
75436;DHT22;64014;53.432;14.534;2022-12-24T04:21:57;3.60;75.30
75436;DHT22;64014;53.432;14.534;2022-12-24T04:24:23;3.60;75.20
75436;DHT22;64014;53.432;14.534;2022-12-24T04:26:49;3.60;75.20
75436;DHT22;64014;53.432;14.534;2022-12-24T04:29:14;3.60;75.00
75436;DHT22;64014;53.432;14.534;2022-12-24T04:31:40;3.60;75.10
75436;DHT22;64014;53.432;14.534;2022-12-24T04:34:06;3.60;74.80
75436;DHT22;64014;53.432;14.534;2022-12-24T04:36:31;3.60;74.80
75436;DHT22;64014;53.432;14.534;2022-12-24T04:38:57;3.70;74.80
75436;DHT22;64014;53.432;14.534;2022-12-24T04:41:23;3.70;74.70
75436;DHT22;64014;53.432;14.534;2022-12-24T04:43:50;3.70;74.40
75436;DHT22;64014;53.432;14.534;2022-12-24T04:46:22;3.70;74.40
75436;DHT22;64014;53.432;14.534;2022-12-24T04:48:49;3.70;74.10
75436;DHT22;64014;53.432;14.534;2022-12-24T04:51:16;3.80;74.00
75436;DHT22;64014;53.432;14.534;2022-12-24T04:53:43;3.70;73.70
75436;DHT22;64014;53.432;14.534;2022-12-24T04:56:14;3.70;73.80
75436;DHT22;64014;53.432;14.534;2022-12-24T04:58:40;3.70;73.80
75436;DHT22;64014;53.432;14.534;2022-12-24T05:01:07;3.80;73.80
75436;DHT22;64014;53.432;14.534;2022-12-24T05:03:36;3.70;73.90
75436;DHT22;64014;53.432;14.534;2022-12-24T05:06:07;3.80;74.00
75436;DHT22;64014;53.432;14.534;2022-12-24T05:08:34;3.80;73.80
75436;DHT22;64014;53.432;14.534;2022-12-24T05:11:00;3.80;73.90
75436;DHT22;64014;53.432;14.534;2022-12-24T05:13:27;3.70;73.90
75436;DHT22;64014;53.432;14.534;2022-12-24T05:15:53;3.70;74.20
75436;DHT22;64014;53.432;14.534;2022-12-24T05:18:20;3.60;74.40
75436;DHT22;64014;53.432;14.534;2022-12-24T05:20:46;3.60;74.70
75436;DHT22;64014;53.432;14.534;2022-12-24T05:23:16;3.60;74.90
75436;DHT22;64014;53.432;14.534;2022-12-24T05:26:01;3.60;75.00
75436;DHT22;64014;53.432;14.534;2022-12-24T05:28:45;3.50;75.10
75436;DHT22;64014;53.432;14.534;2022-12-24T05:31:11;3.50;75.20
75436;DHT22;64014;53.432;14.534;2022-12-24T05:33:37;3.50;75.50
75436;DHT22;64014;53.432;14.534;2022-12-24T05:36:03;3.40;75.50
75436;DHT22;64014;53.432;14.534;2022-12-24T05:38:29;3.30;75.70
75436;DHT22;64014;53.432;14.534;2022-12-24T05:40:54;3.30;75.90
75436;DHT22;64014;53.432;14.534;2022-12-24T05:43:20;3.30;76.00
75436;DHT22;64014;53.432;14.534;2022-12-24T05:45:46;3.30;76.10
75436;DHT22;64014;53.432;14.534;2022-12-24T05:48:11;3.20;76.20
75436;DHT22;64014;53.432;14.534;2022-12-24T05:50:40;3.10;76.40
75436;DHT22;64014;53.432;14.534;2022-12-24T05:53:06;3.10;76.70
75436;DHT22;64014;53.432;14.534;2022-12-24T05:55:32;3.10;76.80
75436;DHT22;64014;53.432;14.534;2022-12-24T05:57:58;3.10;76.80
75436;DHT22;64014;53.432;14.534;2022-12-24T06:00:24;3.10;76.80
75436;DHT22;64014;53.432;14.534;2022-12-24T06:02:50;3.10;76.60
75436;DHT22;64014;53.432;14.534;2022-12-24T06:05:16;3.10;76.70
75436;DHT22;64014;53.432;14.534;2022-12-24T06:07:43;3.10;76.70
75436;DHT22;64014;53.432;14.534;2022-12-24T06:10:09;3.10;76.80
75436;DHT22;64014;53.432;14.534;2022-12-24T06:12:35;3.10;76.90
75436;DHT22;64014;53.432;14.534;2022-12-24T06:15:00;3.10;77.00
75436;DHT22;64014;53.432;14.534;2022-12-24T06:17:26;3.10;77.00
75436;DHT22;64014;53.432;14.534;2022-12-24T06:19:52;3.10;77.20
75436;DHT22;64014;53.432;14.534;2022-12-24T06:22:17;3.10;77.20
75436;DHT22;64014;53.432;14.534;2022-12-24T06:24:43;3.10;77.30
75436;DHT22;64014;53.432;14.534;2022-12-24T06:27:09;3.10;77.20
75436;DHT22;64014;53.432;14.534;2022-12-24T06:29:35;3.10;77.30
75436;DHT22;64014;53.432;14.534;2022-12-24T06:32:01;3.10;77.30
75436;DHT22;64014;53.432;14.534;2022-12-24T06:34:26;3.10;77.30
75436;DHT22;64014;53.432;14.534;2022-12-24T06:36:52;3.10;77.30
75436;DHT22;64014;53.432;14.534;2022-12-24T06:39:18;3.10;77.30
75436;DHT22;64014;53.432;14.534;2022-12-24T06:41:44;3.10;77.20
75436;DHT22;64014;53.432;14.534;2022-12-24T06:44:09;3.10;77.50
75436;DHT22;64014;53.432;14.534;2022-12-24T06:46:35;3.10;77.40
75436;DHT22;64014;53.432;14.534;2022-12-24T06:49:01;3.10;77.40
75436;DHT22;64014;53.432;14.534;2022-12-24T06:51:26;3.10;77.30
75436;DHT22;64014;53.432;14.534;2022-12-24T06:53:52;3.10;77.40
75436;DHT22;64014;53.432;14.534;2022-12-24T06:56:19;3.10;77.30
75436;DHT22;64014;53.432;14.534;2022-12-24T06:58:45;3.10;77.50
75436;DHT22;64014;53.432;14.534;2022-12-24T07:01:14;3.10;77.60
75436;DHT22;64014;53.432;14.534;2022-12-24T07:03:41;3.10;77.70
75436;DHT22;64014;53.432;14.534;2022-12-24T07:06:26;3.10;77.50
75436;DHT22;64014;53.432;14.534;2022-12-24T07:08:53;3.10;77.70
75436;DHT22;64014;53.432;14.534;2022-12-24T07:11:19;3.10;77.70
75436;DHT22;64014;53.432;14.534;2022-12-24T07:13:46;3.10;77.90
75436;DHT22;64014;53.432;14.534;2022-12-24T07:16:12;3.10;77.90
75436;DHT22;64014;53.432;14.534;2022-12-24T07:18:37;3.10;77.90
75436;DHT22;64014;53.432;14.534;2022-12-24T07:21:04;3.00;77.90
75436;DHT22;64014;53.432;14.534;2022-12-24T07:23:30;3.10;77.90
75436;DHT22;64014;53.432;14.534;2022-12-24T07:26:00;3.10;78.00
75436;DHT22;64014;53.432;14.534;2022-12-24T07:28:27;3.00;78.10
75436;DHT22;64014;53.432;14.534;2022-12-24T07:30:54;3.00;78.20
75436;DHT22;64014;53.432;14.534;2022-12-24T07:33:20;3.00;78.30
75436;DHT22;64014;53.432;14.534;2022-12-24T07:35:46;3.00;78.30
75436;DHT22;64014;53.432;14.534;2022-12-24T07:38:12;3.00;78.40
75436;DHT22;64014;53.432;14.534;2022-12-24T07:40:37;3.00;78.40
75436;DHT22;64014;53.432;14.534;2022-12-24T07:43:03;3.00;78.30
75436;DHT22;64014;53.432;14.534;2022-12-24T07:45:29;3.10;78.30
75436;DHT22;64014;53.432;14.534;2022-12-24T07:47:54;3.10;78.30
75436;DHT22;64014;53.432;14.534;2022-12-24T07:50:20;3.10;78.20
75436;DHT22;64014;53.432;14.534;2022-12-24T07:52:46;3.10;78.20
75436;DHT22;64014;53.432;14.534;2022-12-24T07:55:12;3.00;78.30
75436;DHT22;64014;53.432;14.534;2022-12-24T07:57:38;3.10;78.40
75436;DHT22;64014;53.432;14.534;2022-12-24T08:00:04;3.10;78.30
75436;DHT22;64014;53.432;14.534;2022-12-24T08:02:30;3.10;78.20
75436;DHT22;64014;53.432;14.534;2022-12-24T08:04:55;3.10;78.10
75436;DHT22;64014;53.432;14.534;2022-12-24T08:07:21;3.10;77.80
75436;DHT22;64014;53.432;14.534;2022-12-24T08:09:47;3.10;77.70
75436;DHT22;64014;53.432;14.534;2022-12-24T08:12:12;3.10;77.80
75436;DHT22;64014;53.432;14.534;2022-12-24T08:14:38;3.10;78.10
75436;DHT22;64014;53.432;14.534;2022-12-24T08:17:04;3.10;78.10
75436;DHT22;64014;53.432;14.534;2022-12-24T08:19:30;3.10;78.30
75436;DHT22;64014;53.432;14.534;2022-12-24T08:21:56;3.10;78.20
75436;DHT22;64014;53.432;14.534;2022-12-24T08:24:21;3.10;78.40
75436;DHT22;64014;53.432;14.534;2022-12-24T08:26:47;3.20;78.60
75436;DHT22;64014;53.432;14.534;2022-12-24T08:29:13;3.30;78.70
75436;DHT22;64014;53.432;14.534;2022-12-24T08:31:39;3.30;78.30
75436;DHT22;64014;53.432;14.534;2022-12-24T08:34:06;3.40;78.10
75436;DHT22;64014;53.432;14.534;2022-12-24T08:36:34;3.40;78.20
75436;DHT22;64014;53.432;14.534;2022-12-24T08:38:59;3.50;78.20
75436;DHT22;64014;53.432;14.534;2022-12-24T08:41:29;3.50;78.30
75436;DHT22;64014;53.432;14.534;2022-12-24T08:43:55;3.50;78.10
75436;DHT22;64014;53.432;14.534;2022-12-24T08:46:21;3.60;78.20
75436;DHT22;64014;53.432;14.534;2022-12-24T08:48:46;3.60;78.00
75436;DHT22;64014;53.432;14.534;2022-12-24T08:51:12;3.70;77.60
75436;DHT22;64014;53.432;14.534;2022-12-24T08:53:38;3.70;77.70
75436;DHT22;64014;53.432;14.534;2022-12-24T08:56:07;3.70;77.70
75436;DHT22;64014;53.432;14.534;2022-12-24T08:58:33;3.70;78.00
75436;DHT22;64014;53.432;14.534;2022-12-24T09:00:59;3.70;78.00
75436;DHT22;64014;53.432;14.534;2022-12-24T09:03:25;3.70;77.70
75436;DHT22;64014;53.432;14.534;2022-12-24T09:05:51;3.70;77.70
75436;DHT22;64014;53.432;14.534;2022-12-24T09:08:20;3.90;77.60
75436;DHT22;64014;53.432;14.534;2022-12-24T09:10:46;3.90;77.60
75436;DHT22;64014;53.432;14.534;2022-12-24T09:13:11;3.90;77.40
75436;DHT22;64014;53.432;14.534;2022-12-24T09:15:37;4.00;77.40
75436;DHT22;64014;53.432;14.534;2022-12-24T09:18:03;4.00;77.10
75436;DHT22;64014;53.432;14.534;2022-12-24T09:20:29;4.00;76.90
75436;DHT22;64014;53.432;14.534;2022-12-24T09:22:55;4.00;76.80
75436;DHT22;64014;53.432;14.534;2022-12-24T09:25:20;4.00;77.10
75436;DHT22;64014;53.432;14.534;2022-12-24T09:27:46;4.00;77.10
75436;DHT22;64014;53.432;14.534;2022-12-24T09:30:12;4.00;77.20
75436;DHT22;64014;53.432;14.534;2022-12-24T09:32:38;4.00;77.30
75436;DHT22;64014;53.432;14.534;2022-12-24T09:35:04;4.10;77.20
75436;DHT22;64014;53.432;14.534;2022-12-24T09:37:31;4.00;76.70
75436;DHT22;64014;53.432;14.534;2022-12-24T09:39:57;4.00;77.00
75436;DHT22;64014;53.432;14.534;2022-12-24T09:47:32;3.90;77.90
75436;DHT22;64014;53.432;14.534;2022-12-24T09:50:01;3.90;78.10
75436;DHT22;64014;53.432;14.534;2022-12-24T09:52:40;3.90;77.90
75436;DHT22;64014;53.432;14.534;2022-12-24T09:55:26;3.90;77.70
75436;DHT22;64014;53.432;14.534;2022-12-24T09:57:53;3.90;77.90
75436;DHT22;64014;53.432;14.534;2022-12-24T10:00:21;3.90;78.00
75436;DHT22;64014;53.432;14.534;2022-12-24T10:02:48;3.90;77.90
75436;DHT22;64014;53.432;14.534;2022-12-24T10:05:14;4.00;78.20
75436;DHT22;64014;53.432;14.534;2022-12-24T10:10:54;4.10;77.90
75436;DHT22;64014;53.432;14.534;2022-12-24T10:16:23;4.20;77.60
75436;DHT22;64014;53.432;14.534;2022-12-24T10:19:09;4.30;77.80
75436;DHT22;64014;53.432;14.534;2022-12-24T10:24:42;4.60;77.10
75436;DHT22;64014;53.432;14.534;2022-12-24T10:27:13;4.70;76.60
75436;DHT22;64014;53.432;14.534;2022-12-24T10:29:44;4.80;76.20
75436;DHT22;64014;53.432;14.534;2022-12-24T10:32:24;4.70;75.90
75436;DHT22;64014;53.432;14.534;2022-12-24T10:35:05;4.90;76.00
75436;DHT22;64014;53.432;14.534;2022-12-24T10:37:33;4.90;75.80
75436;DHT22;64014;53.432;14.534;2022-12-24T10:39:59;4.90;75.50
75436;DHT22;64014;53.432;14.534;2022-12-24T10:42:36;4.90;75.80
75436;DHT22;64014;53.432;14.534;2022-12-24T10:45:06;4.90;75.80
75436;DHT22;64014;53.432;14.534;2022-12-24T10:47:36;4.90;75.90
75436;DHT22;64014;53.432;14.534;2022-12-24T10:50:17;5.00;75.80
75436;DHT22;64014;53.432;14.534;2022-12-24T10:52:44;5.10;75.70
75436;DHT22;64014;53.432;14.534;2022-12-24T10:57:42;5.20;75.30
75436;DHT22;64014;53.432;14.534;2022-12-24T11:00:20;5.20;75.40
75436;DHT22;64014;53.432;14.534;2022-12-24T11:02:47;5.10;75.30
75436;DHT22;64014;53.432;14.534;2022-12-24T11:05:31;5.00;75.60
75436;DHT22;64014;53.432;14.534;2022-12-24T11:10:44;5.00;76.00
75436;DHT22;64014;53.432;14.534;2022-12-24T11:15:58;5.10;76.40
75436;DHT22;64014;53.432;14.534;2022-12-24T11:18:24;5.10;76.30
75436;DHT22;64014;53.432;14.534;2022-12-24T11:20:51;5.20;76.10
75436;DHT22;64014;53.432;14.534;2022-12-24T11:23:17;5.10;76.00
75436;DHT22;64014;53.432;14.534;2022-12-24T11:25:49;5.10;76.30
75436;DHT22;64014;53.432;14.534;2022-12-24T11:28:28;5.10;76.10
75436;DHT22;64014;53.432;14.534;2022-12-24T11:31:03;5.10;76.20
75436;DHT22;64014;53.432;14.534;2022-12-24T11:33:30;5.10;76.00
75436;DHT22;64014;53.432;14.534;2022-12-24T11:36:00;5.10;75.90
75436;DHT22;64014;53.432;14.534;2022-12-24T11:38:28;5.10;76.10
75436;DHT22;64014;53.432;14.534;2022-12-24T11:41:20;5.00;76.20
75436;DHT22;64014;53.432;14.534;2022-12-24T11:43:49;5.00;76.50
75436;DHT22;64014;53.432;14.534;2022-12-24T11:46:41;5.00;76.90
75436;DHT22;64014;53.432;14.534;2022-12-24T11:51:39;4.90;77.20
75436;DHT22;64014;53.432;14.534;2022-12-24T11:56:42;5.00;77.30
75436;DHT22;64014;53.432;14.534;2022-12-24T11:59:29;5.00;77.40
75436;DHT22;64014;53.432;14.534;2022-12-24T12:05:03;4.80;77.90
75436;DHT22;64014;53.432;14.534;2022-12-24T12:07:29;4.70;78.20
75436;DHT22;64014;53.432;14.534;2022-12-24T12:09:56;4.70;78.10
75436;DHT22;64014;53.432;14.534;2022-12-24T12:12:29;4.80;78.30
75436;DHT22;64014;53.432;14.534;2022-12-24T12:15:00;4.80;78.40
75436;DHT22;64014;53.432;14.534;2022-12-24T12:20:37;5.00;78.40
75436;DHT22;64014;53.432;14.534;2022-12-24T12:23:24;5.20;78.00
75436;DHT22;64014;53.432;14.534;2022-12-24T12:26:17;5.30;77.70
75436;DHT22;64014;53.432;14.534;2022-12-24T12:29:04;5.50;77.60
75436;DHT22;64014;53.432;14.534;2022-12-24T12:31:41;5.50;77.30
75436;DHT22;64014;53.432;14.534;2022-12-24T12:36:48;5.60;76.90
75436;DHT22;64014;53.432;14.534;2022-12-24T12:39:15;5.70;76.70
75436;DHT22;64014;53.432;14.534;2022-12-24T12:42:08;5.60;76.40
75436;DHT22;64014;53.432;14.534;2022-12-24T12:47:36;5.60;76.80
75436;DHT22;64014;53.432;14.534;2022-12-24T12:53:26;5.60;76.80
75436;DHT22;64014;53.432;14.534;2022-12-24T12:59:16;5.40;77.20
75436;DHT22;64014;53.432;14.534;2022-12-24T13:04:57;5.20;77.90
75436;DHT22;64014;53.432;14.534;2022-12-24T13:18:54;4.70;80.00
75436;DHT22;64014;53.432;14.534;2022-12-24T13:21:24;4.70;80.20
75436;DHT22;64014;53.432;14.534;2022-12-24T13:24:04;4.70;80.20
75436;DHT22;64014;53.432;14.534;2022-12-24T13:26:30;4.70;80.30
75436;DHT22;64014;53.432;14.534;2022-12-24T13:32:37;4.70;80.50
75436;DHT22;64014;53.432;14.534;2022-12-24T13:37:50;4.50;80.50
75436;DHT22;64014;53.432;14.534;2022-12-24T13:40:23;4.50;80.80
75436;DHT22;64014;53.432;14.534;2022-12-24T13:45:40;4.50;81.50
75436;DHT22;64014;53.432;14.534;2022-12-24T13:50:42;4.40;82.30
75436;DHT22;64014;53.432;14.534;2022-12-24T13:53:37;4.40;82.50
75436;DHT22;64014;53.432;14.534;2022-12-24T13:56:19;4.40;82.60
75436;DHT22;64014;53.432;14.534;2022-12-24T13:58:48;4.50;82.60
75436;DHT22;64014;53.432;14.534;2022-12-24T14:01:21;4.50;82.40
75436;DHT22;64014;53.432;14.534;2022-12-24T14:03:54;4.50;82.40
75436;DHT22;64014;53.432;14.534;2022-12-24T14:06:26;4.50;82.10
75436;DHT22;64014;53.432;14.534;2022-12-24T14:08:55;4.50;82.20
75436;DHT22;64014;53.432;14.534;2022-12-24T14:11:24;4.50;82.30
75436;DHT22;64014;53.432;14.534;2022-12-24T14:14:09;4.50;82.40
75436;DHT22;64014;53.432;14.534;2022-12-24T14:16:44;4.50;82.40
75436;DHT22;64014;53.432;14.534;2022-12-24T14:19:27;4.50;82.10
75436;DHT22;64014;53.432;14.534;2022-12-24T14:21:58;4.60;82.00
75436;DHT22;64014;53.432;14.534;2022-12-24T14:24:38;4.50;82.10
75436;DHT22;64014;53.432;14.534;2022-12-24T14:32:18;4.70;81.90
75436;DHT22;64014;53.432;14.534;2022-12-24T14:34:44;4.70;81.80
75436;DHT22;64014;53.432;14.534;2022-12-24T14:37:12;4.70;81.80
75436;DHT22;64014;53.432;14.534;2022-12-24T14:39:46;4.70;81.70
75436;DHT22;64014;53.432;14.534;2022-12-24T14:56:15;4.50;82.80
75436;DHT22;64014;53.432;14.534;2022-12-24T14:58:43;4.50;83.10
75436;DHT22;64014;53.432;14.534;2022-12-24T15:04:13;4.40;83.60
75436;DHT22;64014;53.432;14.534;2022-12-24T15:06:52;4.40;83.90
75436;DHT22;64014;53.432;14.534;2022-12-24T15:09:22;4.40;84.00
75436;DHT22;64014;53.432;14.534;2022-12-24T15:11:51;4.40;84.20
75436;DHT22;64014;53.432;14.534;2022-12-24T15:14:18;4.40;84.30
75436;DHT22;64014;53.432;14.534;2022-12-24T15:17:02;4.50;84.30
75436;DHT22;64014;53.432;14.534;2022-12-24T15:19:37;4.50;84.20
75436;DHT22;64014;53.432;14.534;2022-12-24T15:22:09;4.60;84.30
75436;DHT22;64014;53.432;14.534;2022-12-24T15:24:43;4.50;84.10
75436;DHT22;64014;53.432;14.534;2022-12-24T15:27:20;4.50;84.10
75436;DHT22;64014;53.432;14.534;2022-12-24T15:29:48;4.50;84.00
75436;DHT22;64014;53.432;14.534;2022-12-24T15:32:17;4.50;84.10
75436;DHT22;64014;53.432;14.534;2022-12-24T15:34:45;4.50;84.10
75436;DHT22;64014;53.432;14.534;2022-12-24T15:37:54;4.50;84.20
75436;DHT22;64014;53.432;14.534;2022-12-24T15:40:20;4.50;84.20
75436;DHT22;64014;53.432;14.534;2022-12-24T15:42:46;4.50;84.50
75436;DHT22;64014;53.432;14.534;2022-12-24T15:45:17;4.50;84.50
75436;DHT22;64014;53.432;14.534;2022-12-24T15:48:06;4.50;84.60
75436;DHT22;64014;53.432;14.534;2022-12-24T15:50:35;4.50;84.80
75436;DHT22;64014;53.432;14.534;2022-12-24T15:53:06;4.40;85.20
75436;DHT22;64014;53.432;14.534;2022-12-24T15:55:39;4.50;85.50
75436;DHT22;64014;53.432;14.534;2022-12-24T15:58:28;4.40;85.60
75436;DHT22;64014;53.432;14.534;2022-12-24T16:01:21;4.50;85.60
75436;DHT22;64014;53.432;14.534;2022-12-24T16:06:16;4.50;85.40
75436;DHT22;64014;53.432;14.534;2022-12-24T16:08:44;4.50;85.00
75436;DHT22;64014;53.432;14.534;2022-12-24T16:11:15;4.50;85.00
75436;DHT22;64014;53.432;14.534;2022-12-24T16:14:09;4.50;85.00
75436;DHT22;64014;53.432;14.534;2022-12-24T16:16:45;4.50;84.80
75436;DHT22;64014;53.432;14.534;2022-12-24T16:19:29;4.50;84.70
75436;DHT22;64014;53.432;14.534;2022-12-24T16:21:58;4.40;84.80
75436;DHT22;64014;53.432;14.534;2022-12-24T16:24:29;4.40;84.80
75436;DHT22;64014;53.432;14.534;2022-12-24T16:26:55;4.40;84.70
75436;DHT22;64014;53.432;14.534;2022-12-24T16:29:22;4.40;84.70
75436;DHT22;64014;53.432;14.534;2022-12-24T16:31:53;4.50;84.80
75436;DHT22;64014;53.432;14.534;2022-12-24T16:34:25;4.50;84.70
75436;DHT22;64014;53.432;14.534;2022-12-24T16:36:51;4.50;84.60
75436;DHT22;64014;53.432;14.534;2022-12-24T16:39:20;4.50;84.60
75436;DHT22;64014;53.432;14.534;2022-12-24T16:41:55;4.70;84.50
75436;DHT22;64014;53.432;14.534;2022-12-24T16:44:40;4.70;84.40
75436;DHT22;64014;53.432;14.534;2022-12-24T16:47:19;4.70;84.20
75436;DHT22;64014;53.432;14.534;2022-12-24T16:49:45;4.70;84.10
75436;DHT22;64014;53.432;14.534;2022-12-24T16:52:18;4.70;84.30
75436;DHT22;64014;53.432;14.534;2022-12-24T16:54:46;4.70;84.30
75436;DHT22;64014;53.432;14.534;2022-12-24T16:57:11;4.70;84.20
75436;DHT22;64014;53.432;14.534;2022-12-24T16:59:37;4.60;84.40
75436;DHT22;64014;53.432;14.534;2022-12-24T17:02:04;4.60;84.70
75436;DHT22;64014;53.432;14.534;2022-12-24T17:04:31;4.50;84.80
75436;DHT22;64014;53.432;14.534;2022-12-24T17:06:57;4.60;84.90
75436;DHT22;64014;53.432;14.534;2022-12-24T17:09:23;4.60;84.90
75436;DHT22;64014;53.432;14.534;2022-12-24T17:11:49;4.70;84.80
75436;DHT22;64014;53.432;14.534;2022-12-24T17:14:15;4.70;84.70
75436;DHT22;64014;53.432;14.534;2022-12-24T17:16:41;4.70;84.50
75436;DHT22;64014;53.432;14.534;2022-12-24T17:19:07;4.70;84.50
75436;DHT22;64014;53.432;14.534;2022-12-24T17:21:33;4.70;84.40
75436;DHT22;64014;53.432;14.534;2022-12-24T17:23:59;4.80;84.40
75436;DHT22;64014;53.432;14.534;2022-12-24T17:26:25;4.80;84.30
75436;DHT22;64014;53.432;14.534;2022-12-24T17:28:55;4.90;84.10
75436;DHT22;64014;53.432;14.534;2022-12-24T17:31:22;4.90;83.90
75436;DHT22;64014;53.432;14.534;2022-12-24T17:33:49;4.80;83.70
75436;DHT22;64014;53.432;14.534;2022-12-24T17:36:16;4.70;83.60
75436;DHT22;64014;53.432;14.534;2022-12-24T17:38:41;4.70;83.60
75436;DHT22;64014;53.432;14.534;2022-12-24T17:41:11;4.70;83.80
75436;DHT22;64014;53.432;14.534;2022-12-24T17:43:38;4.70;83.80